CheckWX is a tool to help pilots better visualize weather data.  It is not intended as a substitute for an official pre-flight weather briefing.

05:55:10 UTC

LIBN TAF
Lecce Galatina Air Base Airport
Italy
TAF LIBN 200500Z 2006/2015 VRB03KT 5000 BR NSC TEMPO 2006/2008 3000 BR SCT005 BECMG 2008/2010 33010KT 9999 SCT020

Feb-20@
06:00 UTC

Feb-20 @ 06:00 UTC

Feb-20@
08:00 UTC

Feb-20 @ 08:00 UTC

TAF LIBN 200500Z 2006/2015 VRB03KT 5000 BR NSC
Wind
  • Variable at 3 KTS
Visibility
5,005 meters
Conditions
Mist
Cloud Levels
  • No significant clouds

Feb-20@
06:00 UTC

Feb-20 @ 06:00 UTC

Feb-20@
08:00 UTC

Feb-20 @ 08:00 UTC

TEMPO 2006/2008 3000 BR SCT005

Temporary

TemporaryChanges expected for less than half the time period

Visibility
2,993 meters
Conditions
Mist
Cloud Levels
  • Scattered at 500' AGL

Feb-20@
08:00 UTC

Feb-20 @ 08:00 UTC

Feb-20@
15:00 UTC

Feb-20 @ 15:00 UTC

BECMG 2008/2010 33010KT 9999 SCT020

Becoming

BecomingConditions expected by Wed, Feb 20, 2019 @ 10:00 UTC

Wind
  • 330° at 10 KTS
Visibility
10,000+ meters
Conditions
Mist
Cloud Levels
  • Scattered at 2,000' AGL